createdAt,value
2023-04-21T00:02:04.116Z,7.00
2023-04-21T00:04:32.866Z,7.10
2023-04-21T00:07:03.745Z,7.00
2023-04-21T00:09:33.862Z,7.10
2023-04-21T00:12:02.601Z,7.00
2023-04-21T00:14:30.954Z,7.10
2023-04-21T00:17:00.469Z,7.10
2023-04-21T00:19:29.312Z,7.00
2023-04-21T00:21:59.117Z,7.00
2023-04-21T00:24:27.553Z,7.00
2023-04-21T00:26:57.424Z,7.00
2023-04-21T00:29:28.342Z,7.00
2023-04-21T00:31:56.717Z,7.00
2023-04-21T00:34:24.958Z,7.00
2023-04-21T00:36:53.755Z,7.00
2023-04-21T00:39:22.363Z,7.00
2023-04-21T00:41:50.525Z,7.00
2023-04-21T00:44:20.148Z,7.00
2023-04-21T00:46:49.400Z,7.00
2023-04-21T00:49:18.540Z,7.00
2023-04-21T00:51:47.423Z,7.00
2023-04-21T00:54:16.336Z,7.00
2023-04-21T00:56:45.551Z,7.00
2023-04-21T00:59:14.379Z,7.00
2023-04-21T01:01:44.530Z,7.00
2023-04-21T01:04:12.943Z,7.00
2023-04-21T01:06:43.276Z,7.00
2023-04-21T01:09:12.821Z,7.00
2023-04-21T01:11:41.609Z,7.00
2023-04-21T01:14:09.977Z,7.00
2023-04-21T01:16:38.781Z,7.00
2023-04-21T01:19:08.803Z,7.00
2023-04-21T01:21:42.935Z,7.00
2023-04-21T01:24:12.040Z,7.00
2023-04-21T01:26:40.910Z,6.90
2023-04-21T01:29:09.972Z,7.00
2023-04-21T01:31:38.738Z,7.00
2023-04-21T01:34:08.425Z,7.00
2023-04-21T01:36:38.340Z,6.90
2023-04-21T01:39:08.627Z,6.90
2023-04-21T01:41:36.999Z,6.90
2023-04-21T01:44:05.511Z,6.90
2023-04-21T01:46:34.157Z,7.00
2023-04-21T01:49:03.105Z,7.00
2023-04-21T01:51:31.729Z,7.00
2023-04-21T01:54:00.370Z,7.00
2023-04-21T01:56:30.817Z,7.00
2023-04-21T01:58:59.681Z,7.00
2023-04-21T02:01:28.759Z,7.00
2023-04-21T02:03:57.419Z,7.00
2023-04-21T02:06:26.296Z,7.00
2023-04-21T02:08:54.827Z,7.00
2023-04-21T02:11:25.237Z,7.00
2023-04-21T02:13:56.274Z,7.00
2023-04-21T02:16:26.785Z,7.00
2023-04-21T02:18:56.972Z,7.00
2023-04-21T02:21:25.695Z,7.00
2023-04-21T02:23:54.577Z,7.10
2023-04-21T02:26:22.986Z,7.10
2023-04-21T02:28:52.102Z,7.00
2023-04-21T02:31:21.936Z,7.00
2023-04-21T02:33:50.687Z,7.00
2023-04-21T02:36:18.974Z,7.00
2023-04-21T02:38:47.520Z,7.00
2023-04-21T02:41:15.823Z,7.00
2023-04-21T02:43:44.294Z,7.00
2023-04-21T02:46:12.801Z,7.00
2023-04-21T02:48:42.996Z,7.00
2023-04-21T02:51:14.253Z,7.00
2023-04-21T02:53:43.371Z,7.00
2023-04-21T02:56:12.248Z,7.00
2023-04-21T02:58:41.809Z,7.10
2023-04-21T03:01:10.237Z,7.10
2023-04-21T03:03:39.029Z,7.10
2023-04-21T03:06:09.647Z,7.10
2023-04-21T03:08:38.398Z,7.10
2023-04-21T03:11:07.128Z,7.10
2023-04-21T03:13:35.340Z,7.10
2023-04-21T03:16:04.161Z,7.10
2023-04-21T03:18:36.048Z,7.20
2023-04-21T03:21:04.704Z,7.20
2023-04-21T03:23:34.269Z,7.20
2023-04-21T03:26:02.620Z,7.20
2023-04-21T03:28:31.531Z,7.20
2023-04-21T03:30:59.717Z,7.10
2023-04-21T03:33:28.264Z,7.10
2023-04-21T03:35:56.625Z,7.10
2023-04-21T03:38:25.713Z,7.10
2023-04-21T03:40:55.689Z,7.10
2023-04-21T03:43:23.959Z,7.00
2023-04-21T03:45:53.155Z,7.00
2023-04-21T03:48:23.048Z,6.90
2023-04-21T03:50:51.814Z,6.90
2023-04-21T03:53:20.174Z,6.80
2023-04-21T03:55:49.386Z,6.80
2023-04-21T03:58:19.363Z,6.80
2023-04-21T04:00:47.654Z,6.80
2023-04-21T04:03:16.170Z,6.70
2023-04-21T04:05:44.547Z,6.70
2023-04-21T04:08:13.189Z,6.60
2023-04-21T04:10:41.766Z,6.60
2023-04-21T04:13:10.696Z,6.50
2023-04-21T04:15:40.880Z,6.50
2023-04-21T04:18:09.542Z,6.50
2023-04-21T04:20:37.993Z,6.50
2023-04-21T04:23:06.338Z,6.40
2023-04-21T04:25:34.577Z,6.40
2023-04-21T04:28:03.269Z,6.30
2023-04-21T04:30:33.588Z,6.30
2023-04-21T04:33:03.742Z,6.30
2023-04-21T04:35:32.591Z,6.30
2023-04-21T04:38:01.218Z,6.30
2023-04-21T04:40:30.695Z,6.30
2023-04-21T04:42:59.507Z,6.20
2023-04-21T04:45:33.386Z,6.20
2023-04-21T04:48:03.581Z,6.20
2023-04-21T04:50:32.662Z,6.20
2023-04-21T04:53:01.599Z,6.20
2023-04-21T04:55:30.123Z,6.20
2023-04-21T04:57:58.830Z,6.20
2023-04-21T05:00:28.756Z,6.20
2023-04-21T05:02:57.518Z,6.10
2023-04-21T05:05:27.622Z,6.10
2023-04-21T05:07:56.348Z,6.10
2023-04-21T05:10:25.604Z,6.10
2023-04-21T05:12:54.312Z,6.10
2023-04-21T05:15:23.427Z,6.10
2023-04-21T05:17:52.220Z,6.10
2023-04-21T05:20:21.195Z,6.10
2023-04-21T05:22:51.198Z,6.10
2023-04-21T05:25:19.512Z,6.20
2023-04-21T05:27:48.726Z,6.20
2023-04-21T05:30:17.505Z,6.20
2023-04-21T05:32:46.175Z,6.30
2023-04-21T05:35:14.828Z,6.30
2023-04-21T05:37:43.313Z,6.30
2023-04-21T05:40:14.504Z,6.30
2023-04-21T05:42:43.149Z,6.40
2023-04-21T05:45:11.868Z,6.40
2023-04-21T05:47:43.446Z,6.40
2023-04-21T05:50:12.132Z,6.40
2023-04-21T05:52:40.521Z,6.50
2023-04-21T05:55:09.792Z,6.50
2023-04-21T05:57:39.609Z,6.60
2023-04-21T06:00:09.459Z,6.70
2023-04-21T06:02:38.495Z,6.70
2023-04-21T06:05:08.007Z,6.80
2023-04-21T06:07:38.742Z,6.90
2023-04-21T06:10:08.047Z,6.90
2023-04-21T06:12:36.272Z,7.00
2023-04-21T06:15:07.063Z,7.00
2023-04-21T06:17:35.863Z,7.10
2023-04-21T06:20:04.430Z,7.20
2023-04-21T06:22:33.428Z,7.30
2023-04-21T06:25:02.061Z,7.30
2023-04-21T06:27:30.652Z,7.30
2023-04-21T06:29:59.290Z,7.30
2023-04-21T06:32:29.412Z,7.40
2023-04-21T06:34:57.911Z,7.50
2023-04-21T06:37:26.229Z,7.50
2023-04-21T06:39:54.642Z,7.60
2023-04-21T06:42:23.269Z,7.60
2023-04-21T06:44:51.782Z,7.70
2023-04-21T06:47:20.124Z,7.70
2023-04-21T06:49:49.891Z,7.80
2023-04-21T06:52:20.116Z,7.80
2023-04-21T06:54:48.695Z,7.90
2023-04-21T06:57:17.553Z,8.00
2023-04-21T06:59:46.241Z,8.10
2023-04-21T07:02:14.716Z,8.10
2023-04-21T07:04:43.322Z,8.10
2023-04-21T07:07:14.454Z,8.10
2023-04-21T07:09:42.697Z,8.20
2023-04-21T07:12:10.959Z,8.30
2023-04-21T07:14:39.766Z,8.40
2023-04-21T07:17:08.396Z,8.40
2023-04-21T07:19:37.067Z,8.50
2023-04-21T07:22:05.724Z,8.60
2023-04-21T07:24:35.998Z,8.60
2023-04-21T07:27:05.181Z,8.70
2023-04-21T07:29:33.978Z,8.80
2023-04-21T07:32:02.912Z,8.90
2023-04-21T07:34:31.533Z,9.00
2023-04-21T07:37:00.102Z,9.10
2023-04-21T07:39:28.724Z,9.20
2023-04-21T07:41:58.981Z,9.20
2023-04-21T07:44:29.146Z,9.30
2023-04-21T07:46:58.783Z,9.40
2023-04-21T07:49:27.898Z,9.50
2023-04-21T07:51:56.509Z,9.60
2023-04-21T07:54:25.319Z,9.60
2023-04-21T07:56:53.767Z,9.70
2023-04-21T07:59:23.595Z,9.70
2023-04-21T08:01:53.372Z,9.90
2023-04-21T08:04:22.496Z,9.90
2023-04-21T08:06:51.333Z,10.00
2023-04-21T08:09:20.227Z,10.00
2023-04-21T08:11:48.983Z,10.10
2023-04-21T08:14:18.027Z,10.30
2023-04-21T08:16:48.119Z,10.30
2023-04-21T08:19:18.054Z,10.30
2023-04-21T08:21:47.109Z,10.30
2023-04-21T08:24:15.702Z,10.40
2023-04-21T08:26:45.392Z,10.50
2023-04-21T08:29:14.357Z,10.60
2023-04-21T08:31:43.078Z,10.70
2023-04-21T08:34:13.514Z,10.70
2023-04-21T08:36:42.905Z,10.80
2023-04-21T08:39:11.880Z,10.80
2023-04-21T08:41:42.188Z,10.90
2023-04-21T08:44:13.415Z,11.00
2023-04-21T08:46:42.149Z,11.00
2023-04-21T08:49:14.717Z,11.30
2023-04-21T08:51:43.834Z,11.50
2023-04-21T08:54:12.313Z,11.80
2023-04-21T08:56:41.251Z,12.20
2023-04-21T08:59:09.658Z,12.40
2023-04-21T09:02:08.237Z,12.60
2023-04-21T09:04:40.982Z,12.70
2023-04-21T09:07:10.162Z,13.00
2023-04-21T09:09:54.450Z,13.10
2023-04-21T09:12:23.637Z,13.20
2023-04-21T09:14:52.182Z,13.50
2023-04-21T09:17:27.119Z,13.60
2023-04-21T09:19:57.003Z,13.60
2023-04-21T09:22:30.320Z,13.80
2023-04-21T09:25:01.041Z,13.90
2023-04-21T09:27:30.164Z,13.80
2023-04-21T09:30:04.759Z,13.70
2023-04-21T09:32:38.641Z,14.10
2023-04-21T09:35:11.938Z,14.40
2023-04-21T09:37:42.203Z,14.40
2023-04-21T09:40:14.589Z,14.50
2023-04-21T09:42:44.712Z,14.80
2023-04-21T09:47:51.119Z,15.40
2023-04-21T09:50:44.752Z,15.30
2023-04-21T09:53:16.610Z,15.10
2023-04-21T09:55:48.326Z,15.50
2023-04-21T09:58:20.299Z,15.60
2023-04-21T10:00:49.022Z,15.70
2023-04-21T10:03:19.568Z,15.90
2023-04-21T10:05:49.349Z,16.20
2023-04-21T10:08:18.952Z,16.30
2023-04-21T10:10:48.780Z,16.30
2023-04-21T10:13:18.742Z,16.40
2023-04-21T10:15:47.224Z,16.40
2023-04-21T10:18:18.693Z,16.30
2023-04-21T10:20:56.582Z,16.00
2023-04-21T10:23:38.881Z,15.50
2023-04-21T10:26:11.711Z,15.70
2023-04-21T10:28:48.720Z,15.80
2023-04-21T10:31:22.371Z,15.60
2023-04-21T10:34:17.038Z,15.70
2023-04-21T10:37:11.767Z,15.70
2023-04-21T10:39:46.234Z,16.10
2023-04-21T10:42:23.520Z,16.30
2023-04-21T10:45:13.238Z,16.50
2023-04-21T10:47:44.692Z,16.10
2023-04-21T10:50:19.229Z,16.20
2023-04-21T10:53:03.376Z,16.40
2023-04-21T10:55:32.055Z,16.60
2023-04-21T10:58:04.291Z,16.50
2023-04-21T11:00:33.490Z,16.30
2023-04-21T11:03:05.037Z,16.40
2023-04-21T11:05:43.672Z,16.60
2023-04-21T11:08:15.223Z,16.80
2023-04-21T11:10:49.056Z,16.80
2023-04-21T11:13:17.722Z,16.90
2023-04-21T11:15:59.057Z,17.00
2023-04-21T11:18:43.014Z,17.30
2023-04-21T11:21:13.915Z,17.00
2023-04-21T11:23:49.104Z,16.80
2023-04-21T11:26:17.596Z,16.70
2023-04-21T11:28:50.499Z,16.40
2023-04-21T11:31:19.145Z,16.40
2023-04-21T11:33:47.542Z,16.40
2023-04-21T11:36:15.930Z,16.40
2023-04-21T11:38:45.843Z,16.70
2023-04-21T11:41:22.032Z,16.90
2023-04-21T11:43:51.048Z,16.70
2023-04-21T11:46:21.134Z,16.80
2023-04-21T11:49:00.701Z,16.80
2023-04-21T11:51:33.954Z,16.80
2023-04-21T11:54:05.911Z,17.00
2023-04-21T11:56:37.532Z,17.20
2023-04-21T11:59:09.072Z,17.40
2023-04-21T12:01:43.965Z,17.50
2023-04-21T12:04:16.195Z,17.70
2023-04-21T12:06:45.699Z,17.70
2023-04-21T12:09:21.577Z,18.10
2023-04-21T12:11:51.474Z,18.50
2023-04-21T12:14:21.469Z,18.20
2023-04-21T12:16:51.413Z,18.10
2023-04-21T12:19:27.105Z,18.00
2023-04-21T12:21:56.971Z,17.90
2023-04-21T12:24:37.729Z,18.00
2023-04-21T12:27:07.490Z,18.20
2023-04-21T12:29:37.992Z,18.40
2023-04-21T12:32:07.410Z,18.50
2023-04-21T12:34:36.368Z,18.90
2023-04-21T12:37:05.114Z,19.10
2023-04-21T12:39:36.016Z,19.30
2023-04-21T12:42:04.291Z,18.90
2023-04-21T12:44:32.928Z,18.40
2023-04-21T12:47:01.688Z,18.60
2023-04-21T12:49:30.898Z,19.10
2023-04-21T12:51:59.812Z,19.40
2023-04-21T12:54:28.843Z,19.40
2023-04-21T12:56:59.836Z,19.40
2023-04-21T12:59:28.394Z,19.30
2023-04-21T13:01:57.078Z,19.00
2023-04-21T13:04:26.055Z,18.60
2023-04-21T13:06:55.031Z,18.50
2023-04-21T13:09:23.605Z,18.60
2023-04-21T13:11:52.529Z,18.60
2023-04-21T13:14:22.677Z,18.60
2023-04-21T13:16:51.522Z,18.40
2023-04-21T13:19:21.724Z,18.60
2023-04-21T13:21:52.717Z,18.60
2023-04-21T13:24:22.986Z,18.60
2023-04-21T13:26:51.612Z,18.50
2023-04-21T13:29:22.106Z,18.30
2023-04-21T13:31:50.744Z,18.20
2023-04-21T13:34:19.002Z,18.10
2023-04-21T13:36:47.504Z,18.00
2023-04-21T13:39:16.168Z,17.90
2023-04-21T13:41:44.771Z,17.70
2023-04-21T13:44:13.316Z,17.50
2023-04-21T13:46:47.277Z,17.40
2023-04-21T13:49:16.798Z,17.40
2023-04-21T13:51:45.141Z,17.50
2023-04-21T13:54:13.599Z,17.70
2023-04-21T13:56:42.044Z,17.90
2023-04-21T13:59:11.555Z,18.00
2023-04-21T14:01:40.276Z,17.80
2023-04-21T14:04:10.141Z,17.60
2023-04-21T14:06:38.658Z,17.40
2023-04-21T14:09:07.842Z,17.40
2023-04-21T14:11:36.451Z,17.40
2023-04-21T14:14:09.500Z,17.30
2023-04-21T14:16:39.055Z,17.10
2023-04-21T14:19:07.763Z,17.10
2023-04-21T14:21:37.836Z,17.10
2023-04-21T14:24:06.862Z,17.10
2023-04-21T14:26:35.323Z,17.10
2023-04-21T14:29:04.348Z,17.20
2023-04-21T14:31:33.749Z,17.40
2023-04-21T14:34:02.129Z,17.60
2023-04-21T14:36:31.154Z,17.70
2023-04-21T14:39:01.431Z,17.60
2023-04-21T14:41:30.454Z,17.50
2023-04-21T14:44:00.753Z,17.50
2023-04-21T14:46:29.572Z,17.50
2023-04-21T14:48:58.645Z,17.50
2023-04-21T14:51:27.073Z,17.50
2023-04-21T14:53:55.847Z,17.50
2023-04-21T14:56:26.365Z,17.60
2023-04-21T14:58:55.154Z,17.70
2023-04-21T15:01:25.800Z,17.80
2023-04-21T15:03:57.932Z,17.70
2023-04-21T15:06:28.134Z,17.60
2023-04-21T15:08:56.808Z,17.60
2023-04-21T15:11:28.821Z,17.50
2023-04-21T15:13:57.318Z,17.50
2023-04-21T15:16:26.563Z,17.40
2023-04-21T15:18:55.859Z,17.40
2023-04-21T15:21:24.526Z,17.30
2023-04-21T15:23:52.895Z,17.30
2023-04-21T15:26:22.304Z,17.30
2023-04-21T15:28:52.260Z,17.30
2023-04-21T15:31:21.025Z,17.10
2023-04-21T15:33:49.590Z,17.00
2023-04-21T15:36:17.765Z,17.00
2023-04-21T15:38:46.137Z,17.10
2023-04-21T15:41:16.104Z,17.10
2023-04-21T15:43:44.658Z,17.10
2023-04-21T15:46:14.344Z,17.10
2023-04-21T15:48:43.094Z,16.90
2023-04-21T15:51:12.852Z,16.60
2023-04-21T15:53:47.654Z,16.20
2023-04-21T15:56:17.056Z,16.00
2023-04-21T15:58:46.239Z,15.80
2023-04-21T16:01:16.767Z,15.30
2023-04-21T16:03:46.493Z,15.10
2023-04-21T16:06:15.102Z,15.00
2023-04-21T16:08:43.959Z,14.70
2023-04-21T16:11:13.076Z,14.40
2023-04-21T16:13:41.754Z,14.40
2023-04-21T16:16:10.785Z,14.50
2023-04-21T16:18:40.876Z,14.50
2023-04-21T16:21:10.791Z,14.50
2023-04-21T16:23:39.560Z,14.60
2023-04-21T16:26:09.214Z,14.60
2023-04-21T16:28:37.597Z,14.60
2023-04-21T16:31:06.301Z,14.50
2023-04-21T16:33:34.922Z,14.50
2023-04-21T16:36:05.685Z,14.50
2023-04-21T16:38:34.227Z,14.50
2023-04-21T16:41:02.913Z,14.40
2023-04-21T16:43:31.733Z,14.40
2023-04-21T16:46:00.349Z,14.40
2023-04-21T16:48:29.144Z,14.40
2023-04-21T16:50:58.044Z,14.40
2023-04-21T16:53:40.353Z,14.50
2023-04-21T16:56:09.236Z,14.50
2023-04-21T16:58:40.787Z,14.50
2023-04-21T17:01:09.228Z,14.50
2023-04-21T17:03:37.993Z,14.50
2023-04-21T17:06:11.158Z,14.50
2023-04-21T17:08:41.203Z,14.50
2023-04-21T17:11:09.825Z,14.50
2023-04-21T17:13:39.472Z,14.50
2023-04-21T17:16:09.481Z,14.50
2023-04-21T17:18:38.097Z,14.50
2023-04-21T17:21:07.331Z,14.50
2023-04-21T17:23:36.310Z,14.50
2023-04-21T17:26:06.894Z,14.50
2023-04-21T17:28:35.460Z,14.40
2023-04-21T17:31:14.970Z,14.50
2023-04-21T17:33:45.232Z,14.40
2023-04-21T17:36:14.296Z,14.40
2023-04-21T17:38:43.460Z,14.40
2023-04-21T17:41:13.813Z,14.40
2023-04-21T17:43:42.476Z,14.40
2023-04-21T17:46:11.645Z,14.40
2023-04-21T17:48:41.262Z,14.30
2023-04-21T17:51:11.396Z,14.30
2023-04-21T17:53:39.957Z,14.30
2023-04-21T17:56:08.934Z,14.20
2023-04-21T17:58:40.742Z,14.20
2023-04-21T18:01:09.185Z,14.20
2023-04-21T18:03:41.324Z,14.10
2023-04-21T18:06:11.813Z,14.10
2023-04-21T18:08:40.598Z,14.00
2023-04-21T18:11:09.592Z,14.00
2023-04-21T18:13:39.661Z,13.90
2023-04-21T18:16:08.984Z,13.90
2023-04-21T18:18:37.802Z,13.80
2023-04-21T18:21:06.625Z,13.80
2023-04-21T18:23:36.216Z,13.70
2023-04-21T18:26:04.615Z,13.60
2023-04-21T18:28:33.664Z,13.60
2023-04-21T18:31:04.524Z,13.60
2023-04-21T18:33:33.420Z,13.60
2023-04-21T18:36:01.975Z,13.40
2023-04-21T18:38:30.898Z,13.30
2023-04-21T18:40:59.514Z,13.10
2023-04-21T18:43:28.090Z,12.90
2023-04-21T18:45:56.892Z,12.70
2023-04-21T18:48:29.691Z,12.60
2023-04-21T18:50:58.539Z,12.40
2023-04-21T18:53:27.118Z,12.10
2023-04-21T18:55:56.403Z,11.80
2023-04-21T18:58:24.812Z,11.60
2023-04-21T19:00:53.449Z,11.60
2023-04-21T19:03:22.443Z,11.50
2023-04-21T19:05:52.720Z,11.40
2023-04-21T19:08:38.136Z,11.40
2023-04-21T19:11:11.368Z,11.30
2023-04-21T19:13:40.043Z,11.20
2023-04-21T19:16:09.596Z,11.10
2023-04-21T19:18:37.994Z,11.10
2023-04-21T19:21:13.079Z,11.10
2023-04-21T19:23:42.261Z,11.00
2023-04-21T19:26:12.088Z,11.00
2023-04-21T19:28:41.345Z,11.00
2023-04-21T19:31:10.270Z,11.00
2023-04-21T19:33:39.010Z,11.00
2023-04-21T19:36:09.864Z,11.00
2023-04-21T19:38:38.499Z,11.00
2023-04-21T19:41:07.400Z,11.00
2023-04-21T19:43:36.159Z,11.00
2023-04-21T19:46:04.963Z,11.00
2023-04-21T19:48:33.481Z,11.10
2023-04-21T19:51:02.928Z,11.20
2023-04-21T19:53:32.780Z,11.20
2023-04-21T19:56:01.602Z,11.10
2023-04-21T19:58:40.434Z,11.10
2023-04-21T20:01:10.326Z,11.10
2023-04-21T20:03:39.352Z,11.00
2023-04-21T20:06:08.351Z,11.00
2023-04-21T20:08:38.451Z,11.00
2023-04-21T20:11:07.431Z,11.00
2023-04-21T20:13:36.166Z,10.90
2023-04-21T20:16:04.890Z,10.90
2023-04-21T20:18:33.771Z,10.90
2023-04-21T20:21:02.259Z,10.80
2023-04-21T20:23:30.964Z,10.80
2023-04-21T20:26:01.774Z,10.80
2023-04-21T20:28:30.534Z,10.70
2023-04-21T20:30:59.037Z,10.70
2023-04-21T20:33:28.168Z,10.60
2023-04-21T20:35:57.023Z,10.50
2023-04-21T20:38:26.787Z,10.40
2023-04-21T20:40:55.522Z,10.40
2023-04-21T20:43:26.200Z,10.40
2023-04-21T20:45:55.797Z,10.30
2023-04-21T20:48:24.595Z,10.20
2023-04-21T20:50:53.218Z,10.10
2023-04-21T20:53:22.324Z,10.00
2023-04-21T20:55:50.911Z,10.00
2023-04-21T20:58:19.780Z,10.00
2023-04-21T21:00:49.857Z,9.90
2023-04-21T21:03:20.645Z,9.90
2023-04-21T21:05:50.153Z,9.90
2023-04-21T21:08:19.280Z,9.80
2023-04-21T21:10:48.115Z,9.70
2023-04-21T21:13:17.287Z,9.60
2023-04-21T21:15:46.164Z,9.60
2023-04-21T21:18:16.395Z,9.50
2023-04-21T21:20:45.292Z,9.50
2023-04-21T21:23:13.733Z,9.50
2023-04-21T21:25:42.344Z,9.50
2023-04-21T21:28:10.861Z,9.40
2023-04-21T21:30:39.996Z,9.40
2023-04-21T21:33:09.135Z,9.40
2023-04-21T21:35:39.559Z,9.30
2023-04-21T21:38:08.382Z,9.30
2023-04-21T21:40:36.944Z,9.20
2023-04-21T21:43:05.274Z,9.20
2023-04-21T21:45:34.324Z,9.20
2023-04-21T21:48:03.149Z,9.20
2023-04-21T21:50:31.977Z,9.20
2023-04-21T21:53:02.122Z,9.20
2023-04-21T21:55:30.796Z,9.10
2023-04-21T21:58:03.998Z,9.20
2023-04-21T22:00:32.297Z,9.10
2023-04-21T22:03:01.406Z,9.10
2023-04-21T22:05:31.772Z,9.00
2023-04-21T22:08:01.712Z,9.00
2023-04-21T22:10:30.714Z,8.90
2023-04-21T22:12:59.454Z,8.90
2023-04-21T22:15:28.462Z,8.80
2023-04-21T22:17:57.270Z,8.80
2023-04-21T22:20:27.021Z,8.80
2023-04-21T22:22:55.679Z,8.80
2023-04-21T22:25:27.484Z,8.70
2023-04-21T22:27:55.711Z,8.70
2023-04-21T22:30:24.284Z,8.60
2023-04-21T22:32:53.362Z,8.60
2023-04-21T22:35:22.053Z,8.60
2023-04-21T22:37:50.540Z,8.60
2023-04-21T22:40:19.147Z,8.50
2023-04-21T22:42:49.070Z,8.50
2023-04-21T22:45:17.803Z,8.40
2023-04-21T22:47:46.610Z,8.40
2023-04-21T22:50:15.990Z,8.40
2023-04-21T22:52:44.394Z,8.40
2023-04-21T22:55:12.812Z,8.40
2023-04-21T22:57:42.393Z,8.40
2023-04-21T23:00:13.650Z,8.40
2023-04-21T23:02:42.187Z,8.30
2023-04-21T23:05:11.769Z,8.30
2023-04-21T23:07:40.641Z,8.30
2023-04-21T23:10:09.519Z,8.30
2023-04-21T23:12:38.315Z,8.20
2023-04-21T23:15:07.931Z,8.20
2023-04-21T23:17:38.107Z,8.20
2023-04-21T23:20:07.791Z,8.10
2023-04-21T23:22:36.673Z,8.10
2023-04-21T23:25:05.874Z,8.10
2023-04-21T23:27:34.772Z,8.10
2023-04-21T23:30:04.386Z,8.10
2023-04-21T23:32:32.964Z,8.20
2023-04-21T23:35:03.071Z,8.20
2023-04-21T23:37:31.528Z,8.20
2023-04-21T23:40:01.691Z,8.20
2023-04-21T23:42:30.182Z,8.20
2023-04-21T23:45:02.355Z,8.20
2023-04-21T23:47:31.118Z,8.30
2023-04-21T23:50:00.396Z,8.20
2023-04-21T23:52:30.699Z,8.30
2023-04-21T23:55:00.353Z,8.30
2023-04-21T23:57:29.093Z,8.30
2023-04-21T23:59:57.499Z,8.30
